Time;durP1;ratioP1;P1;durP2;ratioP2;P2;SDS_P1;SDS_P2;PMS_P1;PMS_P2;Temp;Humidity;BMP_temperature;BMP_pressure;BME280_temperature;BME280_humidity;BME280_pressure;Samples;Min_cycle;Max_cycle;Signal;HPM_P1;HPM_P2
2021/12/10 00:01:29;;;;;;;2.70;1.90;;;6.70;99.90;;;;;;4952822;29;20212;-66
2021/12/10 00:04:00;;;;;;;2.40;1.87;;;6.70;99.90;;;;;;4950050;28;20179;-66
2021/12/10 00:06:47;;;;;;;2.03;1.60;;;6.70;99.90;;;;;;4949434;28;20197;-66
2021/12/10 00:09:20;;;;;;;2.00;1.67;;;6.70;99.90;;;;;;4944455;29;20182;-66
2021/12/10 00:11:50;;;;;;;3.03;1.63;;;6.70;99.90;;;;;;4968367;28;20196;-67
2021/12/10 00:14:26;;;;;;;2.30;1.80;;;6.70;99.90;;;;;;4946311;29;20330;-66
2021/12/10 00:16:52;;;;;;;2.23;1.50;;;6.60;99.90;;;;;;4958443;28;20285;-66
2021/12/10 00:21:44;;;;;;;3.00;2.00;;;6.60;99.90;;;;;;4952172;29;20205;-66
2021/12/10 00:24:13;;;;;;;2.60;2.10;;;6.50;99.90;;;;;;4946623;29;20183;-66
2021/12/10 00:26:39;;;;;;;3.53;2.23;;;6.50;99.90;;;;;;4969352;28;20177;-67
2021/12/10 00:29:07;;;;;;;3.33;2.37;;;6.50;99.90;;;;;;4950383;29;20208;-65
2021/12/10 00:31:46;;;;;;;3.13;1.97;;;6.40;99.90;;;;;;4948127;29;20189;-66
2021/12/10 00:34:26;;;;;;;2.27;1.63;;;6.40;99.90;;;;;;4954249;28;20193;-66
2021/12/10 00:36:59;;;;;;;4.00;1.60;;;6.40;99.90;;;;;;4952977;28;20188;-66
2021/12/10 00:39:33;;;;;;;2.93;1.50;;;6.40;99.90;;;;;;4944215;29;20343;-66
2021/12/10 00:42:03;;;;;;;3.40;1.80;;;6.40;99.90;;;;;;4959420;28;20204;-66
2021/12/10 00:44:30;;;;;;;3.33;1.70;;;6.40;99.90;;;;;;4949357;29;20212;-66
2021/12/10 00:47:01;;;;;;;2.67;1.50;;;6.40;99.90;;;;;;4950409;28;20260;-66
2021/12/10 00:49:27;;;;;;;4.90;2.17;;;6.40;99.90;;;;;;4965712;28;20267;-66
2021/12/10 00:51:52;;;;;;;3.83;2.00;;;6.50;99.90;;;;;;4951668;28;20272;-66
2021/12/10 00:54:19;;;;;;;5.10;1.90;;;6.50;99.90;;;;;;4951752;28;20276;-66
2021/12/10 00:56:45;;;;;;;2.07;1.70;;;6.50;99.90;;;;;;4946444;29;20188;-66
2021/12/10 01:04:35;;;;;;;2.57;1.60;;;6.50;99.90;;;;;;5133914;22;20276;-66
2021/12/10 01:07:09;;;;;;;2.53;1.73;;;6.50;99.90;;;;;;5107293;27;20187;-66
2021/12/10 01:09:38;;;;;;;2.80;1.73;;;6.50;99.90;;;;;;5014458;28;20206;-66
2021/12/10 01:12:17;;;;;;;2.40;1.50;;;6.50;99.90;;;;;;5003858;28;20268;-66
2021/12/10 01:15:21;;;;;;;2.00;1.50;;;6.50;99.90;;;;;;5005997;28;20207;-66
2021/12/10 01:23:49;;;;;;;2.97;2.00;;;6.40;99.90;;;;;;5008139;28;20181;-66
2021/12/10 01:28:50;;;;;;;1.80;1.60;;;6.40;99.90;;;;;;4999874;28;20178;-65
2021/12/10 01:31:15;;;;;;;2.07;1.83;;;6.40;99.90;;;;;;5008610;28;20247;-66
2021/12/10 01:33:44;;;;;;;3.07;1.63;;;6.40;99.90;;;;;;5000896;28;20192;-66
2021/12/10 01:36:12;;;;;;;2.97;1.70;;;6.40;99.90;;;;;;5023528;28;20368;-65
2021/12/10 01:38:44;;;;;;;3.50;1.80;;;6.50;99.90;;;;;;5023703;28;20175;-66
2021/12/10 01:41:16;;;;;;;3.10;1.40;;;6.40;99.90;;;;;;5002000;28;20217;-66
2021/12/10 01:43:43;;;;;;;3.57;1.30;;;6.50;99.90;;;;;;5008437;28;20174;-66
2021/12/10 01:46:24;;;;;;;2.53;1.40;;;6.50;99.90;;;;;;5009523;28;20298;-66
2021/12/10 01:49:02;;;;;;;3.10;1.13;;;6.50;99.90;;;;;;5008033;28;20182;-66
2021/12/10 01:51:34;;;;;;;2.20;1.20;;;6.60;99.90;;;;;;5013861;28;20183;-66
2021/12/10 01:54:06;;;;;;;2.40;1.00;;;6.60;99.90;;;;;;5016132;28;20189;-66
2021/12/10 01:56:35;;;;;;;2.00;1.00;;;6.60;99.90;;;;;;4995135;28;20221;-67
2021/12/10 01:59:05;;;;;;;2.87;1.13;;;6.70;99.90;;;;;;5005878;28;20221;-66
2021/12/10 02:01:38;;;;;;;2.50;1.00;;;6.70;99.90;;;;;;5010275;28;20252;-66
2021/12/10 02:04:05;;;;;;;1.93;1.00;;;6.70;99.90;;;;;;5002653;28;20240;-66
2021/12/10 02:06:31;;;;;;;3.93;1.20;;;6.70;99.90;;;;;;5006054;28;20167;-66
2021/12/10 02:08:57;;;;;;;1.90;1.07;;;6.80;99.90;;;;;;5070398;28;20183;-66
2021/12/10 02:11:23;;;;;;;2.37;1.40;;;6.80;99.90;;;;;;5086691;28;20242;-66
2021/12/10 02:13:51;;;;;;;2.93;1.23;;;6.80;99.90;;;;;;5074348;28;20183;-66
2021/12/10 02:16:21;;;;;;;1.53;1.00;;;6.80;99.90;;;;;;5062451;28;20483;-66
2021/12/10 02:18:55;;;;;;;3.70;1.20;;;6.80;99.90;;;;;;5082450;28;20198;-66
2021/12/10 02:21:24;;;;;;;1.77;1.00;;;6.70;99.90;;;;;;5075831;28;20228;-66
2021/12/10 02:23:57;;;;;;;2.00;0.90;;;6.70;99.90;;;;;;5079187;28;20202;-66
2021/12/10 02:26:26;;;;;;;2.20;0.90;;;6.70;99.90;;;;;;5072208;28;20201;-66
2021/12/10 02:28:52;;;;;;;3.20;1.10;;;6.70;99.90;;;;;;5056337;28;20182;-66
2021/12/10 02:31:20;;;;;;;5.67;1.37;;;6.70;99.90;;;;;;5065196;28;20179;-68
2021/12/10 02:33:45;;;;;;;2.50;1.20;;;6.70;99.90;;;;;;5059431;28;20270;-66
2021/12/10 02:36:12;;;;;;;3.17;1.20;;;6.80;99.90;;;;;;5066504;28;20299;-67
2021/12/10 02:38:41;;;;;;;5.13;1.50;;;6.80;99.90;;;;;;5070005;28;20183;-66
2021/12/10 02:41:07;;;;;;;3.27;1.30;;;6.70;99.90;;;;;;5067259;28;20211;-66
2021/12/10 02:43:33;;;;;;;3.33;1.20;;;6.70;99.90;;;;;;5072399;28;20352;-66
2021/12/10 02:45:59;;;;;;;3.03;1.10;;;6.70;99.90;;;;;;5076221;28;20407;-66
2021/12/10 02:48:28;;;;;;;3.27;1.00;;;6.70;99.90;;;;;;5063874;28;20206;-66
2021/12/10 02:50:55;;;;;;;2.73;0.93;;;6.60;99.90;;;;;;5088465;28;20190;-66
2021/12/10 02:53:28;;;;;;;3.07;1.07;;;6.60;99.90;;;;;;5097500;27;20327;-66
2021/12/10 02:55:58;;;;;;;2.90;1.43;;;6.60;99.90;;;;;;5075595;28;20276;-66
2021/12/10 02:58:26;;;;;;;1.87;1.00;;;6.60;99.90;;;;;;5065210;28;20206;-66
2021/12/10 03:01:04;;;;;;;2.83;0.87;;;6.50;99.90;;;;;;5073804;28;20509;-66
2021/12/10 03:03:33;;;;;;;1.80;0.90;;;6.50;99.90;;;;;;5073544;28;20297;-66
2021/12/10 03:05:58;;;;;;;4.40;1.03;;;6.50;99.90;;;;;;5066916;28;20276;-66
2021/12/10 03:08:24;;;;;;;3.43;1.20;;;6.50;99.90;;;;;;5048240;28;20234;-66
2021/12/10 03:10:53;;;;;;;2.63;1.17;;;6.50;99.90;;;;;;4967984;28;20234;-66
2021/12/10 03:13:19;;;;;;;3.37;1.10;;;6.50;99.90;;;;;;4966211;28;20231;-67
2021/12/10 03:15:50;;;;;;;2.57;1.20;;;6.50;99.90;;;;;;4985726;28;20254;-66
2021/12/10 03:18:19;;;;;;;5.40;1.27;;;6.50;99.90;;;;;;4968435;28;20188;-66
2021/12/10 03:20:46;;;;;;;2.00;0.80;;;6.50;99.90;;;;;;4966715;28;20225;-66
2021/12/10 03:23:12;;;;;;;2.87;1.40;;;6.40;99.90;;;;;;4990245;28;20222;-66
2021/12/10 03:25:44;;;;;;;3.03;1.00;;;6.40;99.90;;;;;;4966652;28;20216;-67
2021/12/10 03:28:10;;;;;;;3.97;1.10;;;6.40;99.90;;;;;;4981335;28;20267;-66
2021/12/10 03:30:49;;;;;;;1.60;0.87;;;6.40;99.90;;;;;;4969331;28;20285;-66
2021/12/10 03:33:20;;;;;;;3.10;1.10;;;6.40;99.90;;;;;;4960240;28;20478;-66
2021/12/10 03:35:50;;;;;;;2.53;1.00;;;6.30;99.90;;;;;;4968796;28;20250;-66
2021/12/10 03:38:20;;;;;;;3.53;1.20;;;6.30;99.90;;;;;;4981356;28;20208;-66
2021/12/10 03:40:46;;;;;;;2.63;1.20;;;6.30;99.90;;;;;;4983893;28;20185;-66
2021/12/10 03:43:13;;;;;;;5.20;1.43;;;6.30;99.90;;;;;;4966082;28;20245;-66
2021/12/10 03:45:43;;;;;;;4.47;1.30;;;6.30;99.90;;;;;;4972016;28;20191;-66
2021/12/10 03:48:12;;;;;;;2.67;1.03;;;6.30;99.90;;;;;;4987786;28;20184;-66
2021/12/10 03:50:39;;;;;;;2.87;0.90;;;6.30;99.90;;;;;;4967678;28;20200;-66
2021/12/10 03:53:05;;;;;;;3.83;1.40;;;6.30;99.90;;;;;;4969532;28;20283;-66
2021/12/10 03:55:36;;;;;;;2.57;1.10;;;6.30;99.90;;;;;;4994187;28;20215;-66
2021/12/10 03:58:02;;;;;;;2.77;1.10;;;6.30;99.90;;;;;;4984740;28;20240;-66
2021/12/10 04:00:33;;;;;;;3.30;1.30;;;6.30;99.90;;;;;;4970218;28;20212;-66
2021/12/10 04:03:00;;;;;;;3.07;1.47;;;6.30;99.90;;;;;;4964699;28;20212;-66
2021/12/10 04:05:26;;;;;;;2.60;1.10;;;6.40;99.90;;;;;;4965975;28;20188;-67
2021/12/10 04:07:52;;;;;;;3.37;1.33;;;6.40;99.90;;;;;;4969506;28;20176;-66
2021/12/10 04:10:20;;;;;;;2.83;1.40;;;6.40;99.90;;;;;;4981318;28;20204;-66
2021/12/10 04:12:46;;;;;;;3.87;1.80;;;6.40;99.90;;;;;;4995360;28;20279;-66
2021/12/10 04:15:21;;;;;;;3.00;1.60;;;6.40;99.90;;;;;;4961885;28;20272;-66
2021/12/10 04:17:51;;;;;;;5.03;2.07;;;6.50;99.90;;;;;;4971197;28;20216;-66
2021/12/10 04:20:19;;;;;;;3.10;1.70;;;6.40;99.90;;;;;;4968274;28;20176;-65
2021/12/10 04:22:49;;;;;;;4.10;1.93;;;6.40;99.90;;;;;;4975915;28;20208;-66
2021/12/10 04:25:20;;;;;;;3.17;1.87;;;6.40;99.90;;;;;;4990071;28;20204;-66
2021/12/10 04:27:48;;;;;;;4.80;1.93;;;6.40;99.90;;;;;;4969972;28;20176;-65
2021/12/10 04:30:17;;;;;;;2.80;1.67;;;6.40;99.90;;;;;;4967396;28;20195;-66
2021/12/10 04:32:45;;;;;;;2.90;1.53;;;6.40;99.90;;;;;;4978397;28;20177;-66
2021/12/10 04:35:18;;;;;;;4.67;2.50;;;6.40;99.90;;;;;;4968649;28;20246;-66
2021/12/10 04:37:49;;;;;;;4.83;2.23;;;6.40;99.90;;;;;;4971940;28;20265;-66
2021/12/10 04:40:18;;;;;;;6.00;1.80;;;6.30;99.90;;;;;;4985838;28;20232;-66
2021/12/10 04:42:44;;;;;;;2.93;1.93;;;6.40;99.90;;;;;;4968968;28;20226;-66
2021/12/10 04:45:12;;;;;;;4.00;1.70;;;6.30;99.90;;;;;;4988680;28;20233;-66
2021/12/10 04:47:38;;;;;;;2.93;1.60;;;6.30;99.90;;;;;;4971468;28;20191;-66
2021/12/10 04:50:08;;;;;;;4.03;1.80;;;6.30;99.90;;;;;;4969103;28;20181;-66
2021/12/10 04:52:34;;;;;;;4.97;2.03;;;6.30;99.90;;;;;;4984120;28;20203;-66
2021/12/10 04:55:00;;;;;;;4.67;1.90;;;6.30;99.90;;;;;;4971588;28;20188;-66
2021/12/10 04:57:29;;;;;;;4.13;1.83;;;6.20;99.90;;;;;;4969967;28;20211;-65
2021/12/10 04:59:54;;;;;;;4.50;2.00;;;6.20;99.90;;;;;;4986579;28;20208;-66
2021/12/10 05:02:20;;;;;;;2.63;1.50;;;6.20;99.90;;;;;;4981006;28;20431;-66
2021/12/10 05:04:47;;;;;;;2.23;1.43;;;6.20;99.90;;;;;;4981173;28;20189;-66
2021/12/10 05:07:15;;;;;;;4.90;1.47;;;6.10;99.90;;;;;;4998268;28;20268;-66
2021/12/10 05:09:44;;;;;;;4.73;1.50;;;6.00;99.90;;;;;;4991982;28;20192;-65
2021/12/10 05:12:10;;;;;;;4.90;1.80;;;6.00;99.90;;;;;;4982820;28;20333;-66
2021/12/10 05:14:38;;;;;;;4.00;1.50;;;6.00;99.90;;;;;;4969889;28;20204;-66
2021/12/10 05:17:07;;;;;;;3.93;1.50;;;5.90;99.90;;;;;;4975177;28;20192;-67
2021/12/10 05:19:35;;;;;;;4.83;1.50;;;5.90;99.90;;;;;;4977429;28;20286;-66
2021/12/10 05:22:06;;;;;;;5.83;1.77;;;5.90;99.90;;;;;;5004467;28;20192;-66
2021/12/10 05:24:34;;;;;;;3.23;1.70;;;5.90;99.90;;;;;;4966014;28;20373;-66
2021/12/10 05:27:02;;;;;;;4.73;1.60;;;5.90;99.90;;;;;;4998915;28;20176;-66
2021/12/10 05:29:28;;;;;;;6.63;2.10;;;5.80;99.90;;;;;;4998083;28;20196;-66
2021/12/10 05:31:56;;;;;;;2.13;1.30;;;5.80;99.90;;;;;;4995278;28;20274;-66
2021/12/10 05:34:22;;;;;;;4.00;1.50;;;5.80;99.90;;;;;;4976025;28;20278;-67
2021/12/10 05:36:49;;;;;;;2.10;1.17;;;5.80;99.90;;;;;;4972277;28;20263;-66
2021/12/10 05:39:22;;;;;;;3.00;1.10;;;5.80;99.90;;;;;;4966081;28;20266;-66
2021/12/10 05:41:49;;;;;;;3.37;1.43;;;5.80;99.90;;;;;;4992485;28;20228;-66
2021/12/10 05:44:15;;;;;;;6.40;1.60;;;5.80;99.90;;;;;;4977417;28;20177;-66
2021/12/10 05:46:43;;;;;;;3.70;1.40;;;5.80;99.90;;;;;;4955747;28;20251;-66
2021/12/10 05:49:08;;;;;;;2.97;1.37;;;5.80;99.90;;;;;;4968930;28;20172;-66
2021/12/10 05:51:37;;;;;;;4.07;1.30;;;5.80;99.90;;;;;;5001927;28;20276;-66
2021/12/10 05:54:04;;;;;;;3.37;1.40;;;5.70;99.90;;;;;;4972388;28;20184;-66
2021/12/10 05:56:32;;;;;;;2.10;1.30;;;5.70;99.90;;;;;;4983767;28;20294;-66
2021/12/10 05:59:00;;;;;;;4.57;1.20;;;5.70;99.90;;;;;;4963030;28;20183;-66
2021/12/10 06:01:29;;;;;;;4.93;1.10;;;5.70;99.90;;;;;;4981340;28;20205;-66
2021/12/10 06:03:57;;;;;;;3.97;1.20;;;5.70;99.90;;;;;;4970838;28;20200;-67
2021/12/10 06:06:28;;;;;;;3.30;1.00;;;5.70;99.90;;;;;;4972211;28;20181;-66
2021/12/10 06:08:57;;;;;;;2.60;1.10;;;5.70;99.90;;;;;;4970749;28;20180;-66
2021/12/10 06:11:29;;;;;;;3.90;1.30;;;5.60;99.90;;;;;;4966630;28;20220;-66
2021/12/10 06:13:56;;;;;;;4.97;1.30;;;5.60;99.90;;;;;;4971147;28;20179;-66
2021/12/10 06:16:24;;;;;;;3.33;1.30;;;5.60;99.90;;;;;;4971432;28;20222;-66
2021/12/10 06:18:52;;;;;;;3.90;1.40;;;5.60;99.90;;;;;;4958542;28;20188;-66
2021/12/10 06:21:18;;;;;;;2.93;1.40;;;5.60;99.90;;;;;;4978060;28;20220;-66
2021/12/10 06:23:45;;;;;;;5.30;1.37;;;5.60;99.90;;;;;;4984299;28;20210;-66
2021/12/10 06:26:11;;;;;;;4.43;1.30;;;5.60;99.90;;;;;;5048834;28;20189;-66
2021/12/10 06:28:37;;;;;;;6.07;1.57;;;5.70;99.90;;;;;;4974571;28;20180;-66
2021/12/10 06:31:04;;;;;;;3.30;1.10;;;5.70;99.90;;;;;;4966931;28;20203;-66
2021/12/10 06:33:29;;;;;;;5.73;1.50;;;5.60;99.90;;;;;;4970664;28;20235;-67
2021/12/10 06:36:03;;;;;;;3.63;1.37;;;5.70;99.90;;;;;;4994669;28;20219;-67
2021/12/10 06:38:29;;;;;;;4.80;1.57;;;5.60;99.90;;;;;;4970050;28;20184;-67
2021/12/10 06:40:57;;;;;;;2.20;1.30;;;5.70;99.90;;;;;;4987446;28;20235;-66
2021/12/10 06:43:28;;;;;;;3.17;1.20;;;5.60;99.90;;;;;;4978602;28;20184;-67
2021/12/10 06:45:57;;;;;;;2.47;1.20;;;5.60;99.90;;;;;;4970117;28;20179;-66
2021/12/10 06:48:26;;;;;;;2.87;1.17;;;5.60;99.90;;;;;;4959837;28;20204;-67
2021/12/10 06:51:01;;;;;;;4.67;1.60;;;5.60;99.90;;;;;;4973879;28;20176;-66
2021/12/10 06:53:29;;;;;;;6.13;1.60;;;5.60;99.90;;;;;;4971931;28;20204;-67
2021/12/10 06:55:55;;;;;;;3.67;1.40;;;5.60;99.90;;;;;;4971440;28;20248;-67
2021/12/10 06:58:23;;;;;;;3.23;1.13;;;5.60;99.90;;;;;;4988013;28;20335;-67
2021/12/10 07:00:55;;;;;;;2.97;1.07;;;5.60;99.90;;;;;;4963586;28;20229;-67
2021/12/10 07:03:25;;;;;;;4.97;1.20;;;5.60;99.90;;;;;;4972567;28;20187;-67
2021/12/10 07:05:53;;;;;;;4.50;1.20;;;5.60;99.90;;;;;;4987422;28;20269;-66
2021/12/10 07:08:23;;;;;;;3.37;1.20;;;5.60;99.90;;;;;;4970782;28;20202;-67
2021/12/10 07:10:51;;;;;;;1.67;0.90;;;5.60;99.90;;;;;;4984890;28;20206;-67
2021/12/10 07:13:17;;;;;;;2.53;1.13;;;5.60;99.90;;;;;;4981195;28;20241;-66
2021/12/10 07:15:49;;;;;;;2.33;1.10;;;5.60;99.90;;;;;;4963045;28;20188;-67
2021/12/10 07:18:19;;;;;;;2.97;1.20;;;5.60;99.90;;;;;;4969445;28;20215;-67
2021/12/10 07:20:48;;;;;;;3.80;1.27;;;5.60;99.90;;;;;;4976421;28;20184;-67
2021/12/10 07:23:14;;;;;;;3.23;1.20;;;5.60;99.90;;;;;;4981043;28;20220;-67
2021/12/10 07:25:42;;;;;;;2.73;1.20;;;5.60;99.90;;;;;;5014368;28;20267;-66
2021/12/10 07:28:11;;;;;;;3.43;1.30;;;5.60;99.90;;;;;;5054369;28;20187;-67
2021/12/10 07:30:37;;;;;;;3.50;1.10;;;5.60;99.90;;;;;;4987106;28;20203;-67
2021/12/10 07:35:32;;;;;;;2.90;1.03;;;5.60;99.90;;;;;;5191000;22;20329;-68
2021/12/10 07:37:58;;;;;;;4.77;1.23;;;5.60;99.90;;;;;;5076436;28;20270;-71
2021/12/10 07:40:29;;;;;;;3.70;1.40;;;5.60;99.90;;;;;;5082571;28;20199;-70
2021/12/10 07:42:55;;;;;;;5.23;1.30;;;5.70;99.90;;;;;;5104769;28;20195;-70
2021/12/10 07:45:26;;;;;;;4.40;1.30;;;5.70;99.90;;;;;;5095191;28;20204;-70
2021/12/10 07:47:56;;;;;;;4.13;1.30;;;5.70;99.90;;;;;;5106258;28;20236;-70
2021/12/10 07:50:33;;;;;;;4.43;1.23;;;5.70;99.90;;;;;;5091349;28;20258;-70
2021/12/10 07:52:59;;;;;;;7.50;1.40;;;5.80;99.90;;;;;;5094593;28;20172;-70
2021/12/10 07:55:28;;;;;;;3.20;1.20;;;5.80;99.90;;;;;;5094719;28;20182;-69
2021/12/10 07:57:54;;;;;;;4.43;1.23;;;5.80;99.90;;;;;;5094921;28;20480;-69
2021/12/10 08:00:23;;;;;;;3.33;1.50;;;5.80;99.90;;;;;;5088923;28;20188;-68
2021/12/10 08:02:49;;;;;;;7.37;1.73;;;5.90;99.90;;;;;;5091723;28;20215;-70
2021/12/10 08:05:22;;;;;;;6.30;1.70;;;5.90;99.90;;;;;;5094825;28;20196;-69
2021/12/10 08:07:50;;;;;;;5.37;1.50;;;5.90;99.90;;;;;;5110686;28;20183;-70
2021/12/10 08:10:17;;;;;;;2.77;1.20;;;5.90;99.90;;;;;;5092927;28;20310;-71
2021/12/10 08:12:45;;;;;;;3.37;1.40;;;6.00;99.90;;;;;;5090317;28;20183;-71
2021/12/10 08:15:11;;;;;;;2.60;1.30;;;6.00;99.90;;;;;;5092729;28;20172;-70
2021/12/10 08:17:37;;;;;;;3.50;1.10;;;6.00;99.90;;;;;;5094692;28;20266;-70
2021/12/10 08:20:09;;;;;;;3.13;1.50;;;6.00;99.90;;;;;;5088263;28;20188;-69
2021/12/10 08:22:35;;;;;;;4.07;1.37;;;6.10;99.90;;;;;;5089370;28;20212;-70
2021/12/10 08:25:01;;;;;;;3.90;1.33;;;6.00;99.90;;;;;;5091819;28;20476;-69
2021/12/10 08:27:27;;;;;;;2.37;1.23;;;6.10;99.90;;;;;;5089785;28;20242;-70
2021/12/10 08:29:53;;;;;;;5.30;1.60;;;6.10;99.90;;;;;;5086361;28;20711;-70
2021/12/10 08:32:22;;;;;;;3.33;1.70;;;6.10;99.90;;;;;;5092360;28;20187;-70
2021/12/10 08:34:48;;;;;;;3.87;1.43;;;6.10;99.90;;;;;;5094125;28;20189;-71
2021/12/10 08:37:20;;;;;;;3.43;1.47;;;6.10;99.90;;;;;;5093069;28;20205;-71
2021/12/10 08:39:46;;;;;;;4.60;1.57;;;6.10;99.90;;;;;;5077847;28;20279;-68
2021/12/10 08:42:14;;;;;;;2.33;1.60;;;6.10;99.90;;;;;;5071576;28;20342;-70
2021/12/10 08:44:43;;;;;;;4.27;1.70;;;6.10;99.90;;;;;;5061677;28;20177;-70
2021/12/10 08:47:10;;;;;;;5.20;1.80;;;6.10;99.90;;;;;;5071646;28;20169;-69
2021/12/10 08:49:39;;;;;;;4.90;1.87;;;6.10;99.90;;;;;;5073578;28;20235;-68
2021/12/10 08:52:08;;;;;;;3.60;1.90;;;6.00;99.90;;;;;;5068042;28;20181;-69
2021/12/10 08:54:37;;;;;;;4.20;1.70;;;6.10;99.90;;;;;;5069783;28;20208;-68
2021/12/10 08:57:04;;;;;;;5.63;2.30;;;6.10;99.90;;;;;;5072324;28;20180;-70
2021/12/10 08:59:30;;;;;;;4.67;2.37;;;6.10;99.90;;;;;;5072464;28;20204;-67
2021/12/10 09:02:03;;;;;;;3.50;1.70;;;6.00;99.90;;;;;;5070964;28;20234;-70
2021/12/10 09:04:31;;;;;;;5.13;1.77;;;6.00;99.90;;;;;;5072917;28;20176;-70
2021/12/10 09:07:02;;;;;;;4.50;2.10;;;6.00;99.90;;;;;;5069067;28;20427;-69
2021/12/10 09:09:30;;;;;;;3.13;1.40;;;6.00;99.90;;;;;;5070833;28;20178;-70
2021/12/10 09:11:58;;;;;;;3.40;1.73;;;6.10;99.90;;;;;;5068497;28;20196;-69
2021/12/10 09:14:30;;;;;;;4.03;1.77;;;6.00;99.90;;;;;;5067490;28;20188;-71
2021/12/10 09:17:01;;;;;;;5.07;1.90;;;6.00;99.90;;;;;;5071620;28;20187;-71
2021/12/10 09:19:29;;;;;;;3.53;1.70;;;6.00;99.90;;;;;;5074339;28;20354;-70
2021/12/10 09:21:54;;;;;;;3.23;1.67;;;6.00;99.90;;;;;;5073354;28;20506;-70
2021/12/10 09:24:22;;;;;;;4.87;1.83;;;6.00;99.90;;;;;;5069655;28;20284;-70
2021/12/10 09:26:52;;;;;;;5.80;2.00;;;6.00;99.90;;;;;;5071044;28;20286;-69
2021/12/10 09:29:23;;;;;;;4.23;2.07;;;6.00;99.90;;;;;;5071820;28;20188;-71
2021/12/10 09:31:48;;;;;;;4.10;1.70;;;6.00;99.90;;;;;;5070616;28;20243;-68
2021/12/10 09:34:21;;;;;;;2.63;1.60;;;6.00;99.90;;;;;;5072385;28;20456;-69
2021/12/10 09:36:48;;;;;;;4.27;1.60;;;6.10;99.90;;;;;;5067279;28;20196;-69
2021/12/10 09:39:15;;;;;;;3.90;1.70;;;6.10;99.90;;;;;;5071269;28;20172;-68
2021/12/10 09:41:44;;;;;;;4.20;1.90;;;6.10;99.90;;;;;;4970033;28;20312;-69
2021/12/10 09:44:11;;;;;;;2.77;1.50;;;6.10;99.90;;;;;;4962635;28;20226;-67
2021/12/10 09:46:39;;;;;;;2.83;1.70;;;6.10;99.90;;;;;;4970787;28;20169;-67
2021/12/10 09:49:07;;;;;;;3.23;1.93;;;6.10;99.90;;;;;;4978990;28;20241;-69
2021/12/10 09:51:38;;;;;;;3.13;1.70;;;6.20;99.90;;;;;;4970213;28;20195;-68
2021/12/10 09:54:11;;;;;;;4.73;1.70;;;6.20;99.90;;;;;;4970373;28;20180;-69
2021/12/10 09:56:51;;;;;;;3.30;1.63;;;6.20;99.90;;;;;;4971029;28;20525;-69
2021/12/10 09:59:19;;;;;;;2.17;1.40;;;6.20;99.90;;;;;;4975756;28;20184;-70
2021/12/10 10:01:52;;;;;;;3.23;2.07;;;6.20;99.90;;;;;;4971234;28;20222;-69
2021/12/10 10:04:20;;;;;;;3.00;1.67;;;6.30;99.90;;;;;;5011504;28;20403;-70
2021/12/10 10:06:54;;;;;;;5.07;1.80;;;6.30;99.90;;;;;;4987180;28;20234;-69
2021/12/10 10:09:24;;;;;;;2.50;1.50;;;6.30;99.90;;;;;;4990349;28;20230;-69
2021/12/10 10:11:56;;;;;;;4.37;2.07;;;6.30;99.90;;;;;;4965383;28;20376;-69
2021/12/10 10:14:25;;;;;;;4.70;1.90;;;6.40;99.90;;;;;;4968750;28;20432;-68
2021/12/10 10:16:53;;;;;;;5.97;2.03;;;6.40;99.90;;;;;;4967855;28;20223;-69
2021/12/10 10:19:19;;;;;;;4.70;2.17;;;6.40;99.90;;;;;;4970844;28;20220;-70
2021/12/10 10:21:53;;;;;;;4.37;2.10;;;6.40;99.90;;;;;;4975820;28;20226;-68
2021/12/10 10:24:24;;;;;;;3.90;2.00;;;6.40;99.90;;;;;;4967546;28;20274;-66
2021/12/10 10:26:56;;;;;;;4.57;2.00;;;6.40;99.90;;;;;;4969284;28;20179;-70
2021/12/10 10:29:25;;;;;;;3.80;1.90;;;6.40;99.90;;;;;;4967245;28;20204;-69
2021/12/10 10:31:55;;;;;;;3.87;2.00;;;6.50;99.90;;;;;;4968145;28;20259;-69
2021/12/10 10:34:22;;;;;;;3.47;1.90;;;6.50;99.90;;;;;;4967473;28;20211;-69
2021/12/10 10:36:51;;;;;;;3.83;1.83;;;6.50;99.90;;;;;;4969105;28;20176;-69
2021/12/10 10:39:24;;;;;;;3.37;1.50;;;6.50;99.90;;;;;;4968365;28;20179;-70
2021/12/10 10:41:55;;;;;;;3.07;1.60;;;6.50;99.90;;;;;;4966782;28;20554;-66
2021/12/10 10:44:24;;;;;;;4.53;1.67;;;6.60;99.90;;;;;;4962104;28;20192;-69
2021/12/10 10:46:55;;;;;;;3.40;2.07;;;6.60;99.90;;;;;;4969080;28;20176;-70
2021/12/10 10:49:35;;;;;;;3.90;1.80;;;6.60;99.90;;;;;;4968703;28;20180;-69
2021/12/10 10:52:13;;;;;;;3.70;1.90;;;6.70;99.90;;;;;;5009787;28;20184;-69
2021/12/10 10:54:39;;;;;;;3.83;1.97;;;6.70;99.90;;;;;;4970362;28;20299;-69
2021/12/10 10:57:25;;;;;;;1.97;1.50;;;6.70;99.90;;;;;;4968475;28;20181;-69
2021/12/10 10:59:58;;;;;;;3.27;1.53;;;6.70;99.90;;;;;;4989519;28;20227;-69
2021/12/10 11:02:37;;;;;;;3.17;1.77;;;6.70;99.90;;;;;;4967730;28;20299;-68
2021/12/10 11:05:11;;;;;;;4.40;1.90;;;6.80;99.90;;;;;;4968203;28;20231;-69
2021/12/10 11:07:49;;;;;;;4.80;2.10;;;6.80;99.90;;;;;;4982286;28;20184;-69
2021/12/10 11:10:32;;;;;;;4.63;1.60;;;6.80;99.90;;;;;;4966544;28;20233;-66
2021/12/10 11:13:20;;;;;;;3.43;1.77;;;6.80;99.90;;;;;;4976204;28;20215;-68
2021/12/10 11:16:05;;;;;;;2.67;1.37;;;6.90;99.90;;;;;;4965757;28;20268;-69
2021/12/10 11:19:05;;;;;;;3.23;1.77;;;6.80;99.90;;;;;;4965483;28;20204;-69
2021/12/10 11:22:01;;;;;;;1.83;1.37;;;6.90;99.90;;;;;;4976021;28;20220;-70
2021/12/10 11:24:51;;;;;;;4.17;1.70;;;6.90;99.90;;;;;;4967529;28;20188;-69
2021/12/10 11:27:17;;;;;;;2.40;1.57;;;6.90;99.90;;;;;;4973030;28;20179;-68
2021/12/10 11:29:51;;;;;;;3.00;1.70;;;6.90;99.90;;;;;;4970364;28;20171;-70
2021/12/10 11:32:26;;;;;;;2.53;1.60;;;6.90;99.90;;;;;;4970010;28;20191;-69
2021/12/10 11:35:12;;;;;;;2.17;1.60;;;7.00;99.90;;;;;;4999969;28;20314;-70
2021/12/10 11:37:56;;;;;;;4.60;1.90;;;7.00;99.90;;;;;;4943440;28;20302;-70
2021/12/10 11:40:22;;;;;;;2.63;1.70;;;7.00;99.90;;;;;;4994713;28;20196;-68
2021/12/10 11:42:57;;;;;;;3.03;1.67;;;7.00;99.90;;;;;;4965691;28;20295;-68
2021/12/10 11:45:41;;;;;;;3.47;1.73;;;7.00;99.90;;;;;;4974760;28;20222;-69
2021/12/10 11:48:13;;;;;;;3.90;1.70;;;7.00;99.90;;;;;;4967134;28;20220;-70
2021/12/10 11:51:03;;;;;;;2.30;1.40;;;7.00;99.90;;;;;;4967099;28;20269;-67
2021/12/10 11:53:49;;;;;;;3.63;1.60;;;7.00;99.90;;;;;;4972894;28;20250;-70
2021/12/10 11:56:14;;;;;;;3.27;1.50;;;7.00;99.90;;;;;;4961232;28;20192;-70
2021/12/10 11:58:43;;;;;;;2.27;1.40;;;7.00;99.90;;;;;;4967142;28;20208;-70
2021/12/10 12:01:17;;;;;;;3.80;1.40;;;7.00;99.90;;;;;;4962987;28;20196;-70
2021/12/10 12:03:45;;;;;;;3.20;1.87;;;7.00;99.90;;;;;;4968540;28;20168;-70
2021/12/10 12:06:17;;;;;;;4.00;1.70;;;7.00;99.90;;;;;;4970633;28;20190;-69
2021/12/10 12:08:43;;;;;;;3.07;1.60;;;6.90;99.90;;;;;;4963082;28;20204;-68
2021/12/10 12:11:09;;;;;;;3.87;1.67;;;7.00;99.90;;;;;;4970092;28;20172;-70
2021/12/10 12:13:43;;;;;;;2.90;1.60;;;7.00;99.90;;;;;;4966485;28;20208;-70
2021/12/10 12:16:16;;;;;;;3.40;1.40;;;6.90;99.90;;;;;;4968596;28;20245;-70
2021/12/10 12:18:42;;;;;;;3.63;1.53;;;7.00;99.90;;;;;;4971154;28;20192;-68
2021/12/10 12:27:18;;;;;;;1.53;1.30;;;6.90;99.90;;;;;;4965545;28;20191;-68
2021/12/10 12:29:55;;;;;;;3.07;1.70;;;6.90;99.90;;;;;;4968751;28;20176;-67
2021/12/10 12:32:37;;;;;;;2.37;1.63;;;6.90;99.90;;;;;;4982074;28;20187;-67
2021/12/10 12:35:26;;;;;;;3.63;1.60;;;6.90;99.90;;;;;;4973699;28;20212;-67
2021/12/10 12:38:37;;;;;;;2.60;1.30;;;6.90;99.90;;;;;;4971454;28;20222;-68
2021/12/10 12:41:17;;;;;;;4.30;1.40;;;6.90;99.90;;;;;;4942017;28;20204;-67
2021/12/10 12:43:47;;;;;;;1.83;1.37;;;6.90;99.90;;;;;;4970958;28;20267;-68
2021/12/10 12:46:13;;;;;;;3.33;1.50;;;6.80;99.90;;;;;;4971528;28;20275;-67
2021/12/10 12:48:55;;;;;;;2.10;1.27;;;6.80;99.90;;;;;;4976041;28;20180;-67
2021/12/10 12:51:21;;;;;;;3.50;1.40;;;6.80;99.90;;;;;;4966868;28;20204;-70
2021/12/10 12:53:49;;;;;;;2.47;1.40;;;6.80;99.90;;;;;;4977033;28;20184;-66
2021/12/10 12:56:16;;;;;;;2.47;1.60;;;6.80;99.90;;;;;;4969856;28;20237;-69
2021/12/10 12:58:47;;;;;;;2.67;1.47;;;6.70;99.90;;;;;;4968296;28;20203;-68
2021/12/10 13:01:22;;;;;;;2.83;1.53;;;6.70;99.90;;;;;;4969849;28;20180;-68
2021/12/10 13:03:59;;;;;;;3.43;1.30;;;6.70;99.90;;;;;;4971897;28;20183;-67
2021/12/10 13:06:45;;;;;;;1.93;1.27;;;6.70;99.90;;;;;;4971126;28;20180;-67
2021/12/10 13:09:36;;;;;;;1.70;1.20;;;6.60;99.90;;;;;;4970842;28;20188;-68
2021/12/10 13:12:17;;;;;;;2.60;1.33;;;6.60;99.90;;;;;;4969584;28;20409;-68
2021/12/10 13:14:57;;;;;;;1.97;1.30;;;6.60;99.90;;;;;;4967234;28;20242;-68
2021/12/10 13:17:30;;;;;;;1.40;1.20;;;6.60;99.90;;;;;;4971002;28;20231;-69
2021/12/10 13:20:00;;;;;;;2.70;1.57;;;6.60;99.90;;;;;;4966267;28;20184;-67
2021/12/10 13:22:30;;;;;;;5.17;1.80;;;6.60;99.90;;;;;;4986888;28;20208;-68
2021/12/10 13:25:04;;;;;;;3.80;1.50;;;6.70;99.90;;;;;;5010343;28;20192;-68
2021/12/10 13:27:32;;;;;;;2.20;1.50;;;6.70;99.90;;;;;;4982657;28;20184;-69
2021/12/10 13:30:04;;;;;;;4.50;1.60;;;6.70;99.90;;;;;;4986738;28;20238;-69
2021/12/10 13:32:30;;;;;;;5.40;1.57;;;6.70;99.90;;;;;;4976485;28;20229;-69
2021/12/10 13:34:58;;;;;;;4.70;1.67;;;6.60;99.90;;;;;;4971135;28;20256;-69
2021/12/10 13:37:24;;;;;;;2.43;1.30;;;6.70;99.90;;;;;;4969035;28;20436;-69
2021/12/10 13:39:54;;;;;;;2.37;1.30;;;6.70;99.90;;;;;;4968794;28;20281;-69